Bookmark and Share
Track history (hours):
 

Wanhe

Last reported at 2014-Apr-14 23:33 UTC. Time now 2014-Apr-24 13:43 UTC.
Position N 01°17' E 103°22'.
Warning: this ship's position is 9 days out of date.

Length 280 m; draft 13.7 m.

Type: Cargo ship. MMSI: 351217000.

NotesDate/timePositionNaut miles runAvg speedWind from/ knotsBaromVisibWave heightAir tempDewpointWater temp
2014-Apr-14 23:33N 01°17' E 103°22'1414.1
2014-Apr-14 22:33N 01°12' E 103°35'9 9.6
2014-Apr-14 21:34N 01°15' E 103°44'3 2.6
2014-Apr-14 20:31N 01°17' E 103°46'0 0.0
2014-Apr-14 19:31N 01°17' E 103°46'0 0.0
2014-Apr-14 18:31N 01°17' E 103°46'0 0.0
2014-Apr-14 17:31N 01°17' E 103°46'0 0.0
2014-Apr-14 16:31N 01°17' E 103°46'0 0.0
2014-Apr-14 15:31N 01°17' E 103°46'0 0.0
2014-Apr-14 14:31N 01°17' E 103°46'0 0.0
2014-Apr-14 13:31N 01°17' E 103°46'0 0.0
2014-Apr-14 11:31N 01°17' E 103°46'0 0.1
2014-Apr-14 10:31N 01°17' E 103°46'0 0.0
2014-Apr-14 05:33N 01°17' E 103°46'  
2014-Apr-10 05:33N 22°34' E 114°16'0 0.1
2014-Apr-10 03:13N 22°34' E 114°16'0 0.0
2014-Apr-10 00:31N 22°34' E 114°16'0 0.0
2014-Apr-09 22:19N 22°34' E 114°16'0 0.1
2014-Apr-09 21:31N 22°34' E 114°16'0 0.0
2014-Apr-09 20:31N 22°34' E 114°16'0 0.0
2014-Apr-09 19:31N 22°34' E 114°16'0 0.0
2014-Apr-09 18:31N 22°34' E 114°16'0 0.0
2014-Apr-09 17:25N 22°34' E 114°16'0 0.0
2014-Apr-09 16:19N 22°34' E 114°16'17 2.9
2014-Apr-09 10:32N 22°20' E 114°07'0 0.1
2014-Apr-09 06:25N 22°20' E 114°08'0 0.0
2014-Apr-08 22:31N 22°20' E 114°08'0 0.1
2014-Apr-08 21:11N 22°20' E 114°08'4 6.4
2014-Apr-08 20:31N 22°15' E 114°07'7 7.6
2014-Apr-08 19:33N 22°10' E 114°13'10 8.9
2014-Apr-08 18:27N 22°09' E 114°23'12812.9
2014-Apr-08 08:30N 22°40' E 116°37'1313.3
2014-Apr-08 07:33N 22°48' E 116°48'1414.0
2014-Apr-08 06:32N 22°57' E 116°60'1414.0
2014-Apr-08 05:34N 23°06' E 117°12'1613.7
2014-Apr-08 04:22N 23°17' E 117°25'1314.6
2014-Apr-08 03:31N 23°24' E 117°36'1414.9
2014-Apr-08 02:33N 23°33' E 117°48'2115.1
2014-Apr-08 01:10N 23°45' E 118°07'914.5
2014-Apr-08 00:33N 23°51' E 118°14'1515.0
2014-Apr-07 23:33N 23°59' E 118°28'1515.2
2014-Apr-07 22:32N 24°08' E 118°42'1514.8
2014-Apr-07 21:32N 24°17' E 118°55'1914.6
2014-Apr-07 20:14N 24°28' E 119°11'1013.9
2014-Apr-07 19:32N 24°34' E 119°20'33416.7
2014-Apr-06 23:33N 29°20' E 122°34'1919.3
2014-Apr-06 22:33N 29°38' E 122°27'1414.5
2014-Apr-06 21:33N 29°48' E 122°15'1111.0
2014-Apr-06 20:33N 29°54' E 122°04'1 1.0
2014-Apr-06 19:30N 29°53' E 122°04'0 0.0
2014-Apr-06 18:33N 29°53' E 122°04'0 0.0
2014-Apr-06 17:33N 29°53' E 122°04'0 0.0
2014-Apr-06 16:30N 29°53' E 122°04'0 0.0
2014-Apr-06 15:24N 29°53' E 122°04'0 0.0
2014-Apr-06 14:33N 29°53' E 122°04'0 0.0
2014-Apr-06 13:33N 29°53' E 122°04'0 0.0
2014-Apr-06 12:30N 29°53' E 122°04'0 0.0
2014-Apr-06 11:30N 29°53' E 122°04'0 0.0
2014-Apr-06 10:30N 29°53' E 122°04'0 0.0
2014-Apr-06 09:33N 29°53' E 122°04'0 0.0
2014-Apr-06 08:33N 29°53' E 122°04'0 0.0
2014-Apr-06 07:33N 29°53' E 122°04'2 1.5
2014-Apr-06 06:34N 29°55' E 122°05'1110.7
2014-Apr-06 05:33N 29°48' E 122°15'10 9.6
2014-Apr-06 04:33N 29°44' E 122°24'8 7.7
2014-Apr-06 03:33N 29°46' E 122°33'3 2.6
2014-Apr-06 02:29N 29°48' E 122°35'0 0.0
2014-Apr-06 01:29N 29°48' E 122°35'0 0.0
2014-Apr-06 00:17N 29°48' E 122°35'0 0.0
2014-Apr-05 23:17N 29°48' E 122°35'0 0.0
2014-Apr-05 22:29N 29°48' E 122°35'0 0.0
2014-Apr-05 21:23N 29°48' E 122°35'0 0.1
2014-Apr-05 20:13N 29°48' E 122°36'810.4
2014-Apr-05 19:28N 29°55' E 122°41'1819.7
2014-Apr-05 18:32N 30°12' E 122°48'3215.7
2014-Apr-05 16:32N 30°32' E 122°20'1313.6
2014-Apr-05 15:33N 30°36' E 122°06'3 0.2
2014-Apr-05 01:33N 30°37' E 122°03'1111.2
2014-Apr-05 00:33N 30°34' E 122°15'  

Dump ship's entire track history

sailing weather and tide predictions

Wanhe — 3FJH7 — position and weather